sensor_id;sensor_type;location;lat;lon;timestamp;pressure;altitude;pressure_sealevel;temperature;humidity
72558;BME280;60583;50.094;8.748;2023-07-28T00:01:52;99603.84;;;17.21;100.00
72558;BME280;60583;50.094;8.748;2023-07-28T00:04:18;99604.66;;;17.21;100.00
72558;BME280;60583;50.094;8.748;2023-07-28T00:06:43;99615.44;;;17.21;100.00
72558;BME280;60583;50.094;8.748;2023-07-28T00:09:08;99607.88;;;17.18;100.00
72558;BME280;60583;50.094;8.748;2023-07-28T00:11:34;99614.09;;;17.24;100.00
72558;BME280;60583;50.094;8.748;2023-07-28T00:13:59;99606.03;;;17.24;100.00
72558;BME280;60583;50.094;8.748;2023-07-28T00:16:25;99611.94;;;17.21;100.00
72558;BME280;60583;50.094;8.748;2023-07-28T00:18:50;99626.53;;;17.30;100.00
72558;BME280;60583;50.094;8.748;2023-07-28T00:21:15;99618.75;;;17.34;100.00
72558;BME280;60583;50.094;8.748;2023-07-28T00:23:41;99617.34;;;17.26;100.00
72558;BME280;60583;50.094;8.748;2023-07-28T00:26:06;99611.41;;;17.24;100.00
72558;BME280;60583;50.094;8.748;2023-07-28T00:28:32;99618.91;;;17.22;100.00
72558;BME280;60583;50.094;8.748;2023-07-28T00:30:57;99598.44;;;17.16;100.00
72558;BME280;60583;50.094;8.748;2023-07-28T00:33:22;99608.16;;;17.22;100.00
72558;BME280;60583;50.094;8.748;2023-07-28T00:35:48;99608.75;;;17.29;100.00
72558;BME280;60583;50.094;8.748;2023-07-28T00:38:14;99609.81;;;17.28;100.00
72558;BME280;60583;50.094;8.748;2023-07-28T00:40:40;99606.88;;;17.35;100.00
72558;BME280;60583;50.094;8.748;2023-07-28T00:43:05;99587.66;;;17.16;100.00
72558;BME280;60583;50.094;8.748;2023-07-28T00:45:32;99598.72;;;17.24;100.00
72558;BME280;60583;50.094;8.748;2023-07-28T00:47:58;99604.94;;;17.25;100.00
72558;BME280;60583;50.094;8.748;2023-07-28T00:50:24;99592.78;;;17.22;100.00
72558;BME280;60583;50.094;8.748;2023-07-28T00:52:50;99582.53;;;17.19;100.00
72558;BME280;60583;50.094;8.748;2023-07-28T00:55:16;99590.06;;;17.17;100.00
72558;BME280;60583;50.094;8.748;2023-07-28T00:57:41;99596.84;;;17.25;100.00
72558;BME280;60583;50.094;8.748;2023-07-28T01:00:08;99595.25;;;17.24;100.00
72558;BME280;60583;50.094;8.748;2023-07-28T01:02:33;99580.94;;;17.18;100.00
72558;BME280;60583;50.094;8.748;2023-07-28T01:04:59;99586.59;;;17.22;100.00
72558;BME280;60583;50.094;8.748;2023-07-28T01:07:53;99589.84;;;17.24;100.00
72558;BME280;60583;50.094;8.748;2023-07-28T01:10:26;99573.59;;;17.09;100.00
72558;BME280;60583;50.094;8.748;2023-07-28T01:12:53;99577.91;;;17.10;100.00
72558;BME280;60583;50.094;8.748;2023-07-28T01:15:19;99569.81;;;17.10;100.00
72558;BME280;60583;50.094;8.748;2023-07-28T01:17:44;99567.13;;;17.10;100.00
72558;BME280;60583;50.094;8.748;2023-07-28T01:20:10;99587.66;;;17.16;100.00
72558;BME280;60583;50.094;8.748;2023-07-28T01:23:05;99565.56;;;17.19;100.00
72558;BME280;60583;50.094;8.748;2023-07-28T01:26:11;99578.78;;;17.20;100.00
72558;BME280;60583;50.094;8.748;2023-07-28T01:28:36;99569.84;;;17.15;100.00
72558;BME280;60583;50.094;8.748;2023-07-28T01:31:04;99562.03;;;17.13;100.00
72558;BME280;60583;50.094;8.748;2023-07-28T01:33:29;99572.56;;;17.20;100.00
72558;BME280;60583;50.094;8.748;2023-07-28T01:35:55;99556.31;;;17.05;100.00
72558;BME280;60583;50.094;8.748;2023-07-28T01:38:20;99564.47;;;17.15;100.00
72558;BME280;60583;50.094;8.748;2023-07-28T01:40:46;99579.56;;;17.16;100.00
72558;BME280;60583;50.094;8.748;2023-07-28T01:43:11;99571.75;;;17.19;100.00
72558;BME280;60583;50.094;8.748;2023-07-28T01:45:36;99563.41;;;17.16;100.00
72558;BME280;60583;50.094;8.748;2023-07-28T01:48:02;99560.69;;;17.16;100.00
72558;BME280;60583;50.094;8.748;2023-07-28T01:50:27;99572.31;;;17.16;100.00
72558;BME280;60583;50.094;8.748;2023-07-28T01:52:53;99564.47;;;17.15;100.00
72558;BME280;60583;50.094;8.748;2023-07-28T01:55:18;99578.19;;;17.13;100.00
72558;BME280;60583;50.094;8.748;2023-07-28T01:57:54;99569.53;;;17.06;100.00
72558;BME280;60583;50.094;8.748;2023-07-28T02:00:19;99567.41;;;17.08;100.00
72558;BME280;60583;50.094;8.748;2023-07-28T02:02:46;99586.06;;;17.25;100.00
72558;BME280;60583;50.094;8.748;2023-07-28T02:05:12;99575.22;;;17.15;100.00
72558;BME280;60583;50.094;8.748;2023-07-28T02:07:37;99583.34;;;17.20;100.00
72558;BME280;60583;50.094;8.748;2023-07-28T02:10:03;99588.16;;;17.13;100.00
72558;BME280;60583;50.094;8.748;2023-07-28T02:12:28;99591.72;;;17.23;100.00
72558;BME280;60583;50.094;8.748;2023-07-28T02:14:53;99572.50;;;17.10;100.00
72558;BME280;60583;50.094;8.748;2023-07-28T02:17:19;99564.41;;;17.05;100.00
72558;BME280;60583;50.094;8.748;2023-07-28T02:19:44;99570.91;;;17.09;100.00
72558;BME280;60583;50.094;8.748;2023-07-28T02:22:09;99570.06;;;17.03;100.00
72558;BME280;60583;50.094;8.748;2023-07-28T02:24:36;99575.50;;;17.13;100.00
72558;BME280;60583;50.094;8.748;2023-07-28T02:27:02;99582.78;;;17.13;100.00
72558;BME280;60583;50.094;8.748;2023-07-28T02:29:27;99522.75;;;16.76;100.00
72558;BME280;60583;50.094;8.748;2023-07-28T02:31:53;99590.31;;;17.11;100.00
72558;BME280;60583;50.094;8.748;2023-07-28T02:34:18;99583.28;;;17.10;100.00
72558;BME280;60583;50.094;8.748;2023-07-28T02:36:43;99577.31;;;17.03;100.00
72558;BME280;60583;50.094;8.748;2023-07-28T02:39:09;99581.72;;;17.14;100.00
72558;BME280;60583;50.094;8.748;2023-07-28T02:41:34;99571.69;;;17.09;100.00
72558;BME280;60583;50.094;8.748;2023-07-28T02:43:59;99549.81;;;16.96;100.00
72558;BME280;60583;50.094;8.748;2023-07-28T02:46:25;99579.22;;;17.07;100.00
72558;BME280;60583;50.094;8.748;2023-07-28T02:49:00;99573.03;;;17.07;100.00
72558;BME280;60583;50.094;8.748;2023-07-28T02:51:27;99586.50;;;17.07;100.00
72558;BME280;60583;50.094;8.748;2023-07-28T02:53:53;99581.41;;;17.10;100.00
72558;BME280;60583;50.094;8.748;2023-07-28T02:56:19;99580.88;;;17.08;100.00
72558;BME280;60583;50.094;8.748;2023-07-28T02:58:45;99575.72;;;17.07;100.00
72558;BME280;60583;50.094;8.748;2023-07-28T03:01:11;99581.41;;;17.10;100.00
72558;BME280;60583;50.094;8.748;2023-07-28T03:03:37;99584.91;;;17.11;100.00
72558;BME280;60583;50.094;8.748;2023-07-28T03:06:02;99584.09;;;17.10;100.00
72558;BME280;60583;50.094;8.748;2023-07-28T03:08:28;99564.91;;;17.02;100.00
72558;BME280;60583;50.094;8.748;2023-07-28T03:10:57;99585.72;;;17.06;100.00
72558;BME280;60583;50.094;8.748;2023-07-28T03:13:22;99586.78;;;17.05;100.00
72558;BME280;60583;50.094;8.748;2023-07-28T03:15:48;99573.00;;;17.02;100.00
72558;BME280;60583;50.094;8.748;2023-07-28T03:18:13;99584.09;;;17.10;100.00
72558;BME280;60583;50.094;8.748;2023-07-28T03:20:39;99572.78;;;17.08;100.00
72558;BME280;60583;50.094;8.748;2023-07-28T03:23:04;99569.28;;;17.08;100.00
72558;BME280;60583;50.094;8.748;2023-07-28T03:25:29;99555.75;;;16.98;100.00
72558;BME280;60583;50.094;8.748;2023-07-28T03:27:55;99573.59;;;17.09;100.00
72558;BME280;60583;50.094;8.748;2023-07-28T03:30:20;99582.25;;;17.16;100.00
72558;BME280;60583;50.094;8.748;2023-07-28T03:32:46;99583.34;;;17.20;100.00
72558;BME280;60583;50.094;8.748;2023-07-28T03:35:11;99586.00;;;17.15;100.00
72558;BME280;60583;50.094;8.748;2023-07-28T03:37:36;99598.66;;;17.14;100.00
72558;BME280;60583;50.094;8.748;2023-07-28T03:40:02;99566.78;;;16.96;100.00
72558;BME280;60583;50.094;8.748;2023-07-28T03:42:27;99581.66;;;17.04;100.00
72558;BME280;60583;50.094;8.748;2023-07-28T03:44:53;99590.81;;;17.08;100.00
72558;BME280;60583;50.094;8.748;2023-07-28T03:47:19;99586.22;;;17.03;100.00
72558;BME280;60583;50.094;8.748;2023-07-28T03:49:44;99594.88;;;17.10;100.00
72558;BME280;60583;50.094;8.748;2023-07-28T03:52:10;99590.59;;;17.14;100.00
72558;BME280;60583;50.094;8.748;2023-07-28T03:54:35;99562.25;;;17.07;100.00
72558;BME280;60583;50.094;8.748;2023-07-28T03:57:00;99575.22;;;17.15;100.00
72558;BME280;60583;50.094;8.748;2023-07-28T03:59:26;99579.53;;;17.11;100.00
72558;BME280;60583;50.094;8.748;2023-07-28T04:01:51;99570.34;;;17.12;100.00
72558;BME280;60583;50.094;8.748;2023-07-28T04:04:17;99571.47;;;17.16;100.00
72558;BME280;60583;50.094;8.748;2023-07-28T04:06:45;99570.34;;;17.12;100.00
72558;BME280;60583;50.094;8.748;2023-07-28T04:09:14;99578.47;;;17.17;100.00
72558;BME280;60583;50.094;8.748;2023-07-28T04:11:40;99573.59;;;17.09;100.00
72558;BME280;60583;50.094;8.748;2023-07-28T04:14:06;99591.94;;;17.17;100.00
72558;BME280;60583;50.094;8.748;2023-07-28T04:16:31;99590.88;;;17.18;100.00
72558;BME280;60583;50.094;8.748;2023-07-28T04:18:57;99584.94;;;17.16;100.00
72558;BME280;60583;50.094;8.748;2023-07-28T04:21:23;99601.66;;;17.18;100.00
72558;BME280;60583;50.094;8.748;2023-07-28T04:23:48;99612.75;;;17.21;100.00
72558;BME280;60583;50.094;8.748;2023-07-28T04:26:13;99597.63;;;17.20;100.00
72558;BME280;60583;50.094;8.748;2023-07-28T04:28:39;99606.28;;;17.28;100.00
72558;BME280;60583;50.094;8.748;2023-07-28T04:31:05;99600.63;;;17.24;100.00
72558;BME280;60583;50.094;8.748;2023-07-28T04:33:30;99614.13;;;17.29;100.00
72558;BME280;60583;50.094;8.748;2023-07-28T04:35:56;99588.72;;;17.15;100.00
72558;BME280;60583;50.094;8.748;2023-07-28T04:38:21;99603.06;;;17.26;100.00
72558;BME280;60583;50.094;8.748;2023-07-28T04:40:46;99604.13;;;17.30;100.00
72558;BME280;60583;50.094;8.748;2023-07-28T04:43:12;99597.97;;;17.29;100.00
72558;BME280;60583;50.094;8.748;2023-07-28T04:45:37;99617.94;;;17.38;100.00
72558;BME280;60583;50.094;8.748;2023-07-28T04:48:03;99610.91;;;17.32;100.00
72558;BME280;60583;50.094;8.748;2023-07-28T04:50:28;99612.00;;;17.36;100.00
72558;BME280;60583;50.094;8.748;2023-07-28T04:52:54;99617.94;;;17.38;100.00
72558;BME280;60583;50.094;8.748;2023-07-28T04:55:19;99614.13;;;17.29;100.00
72558;BME280;60583;50.094;8.748;2023-07-28T04:57:45;99636.84;;;17.43;100.00
72558;BME280;60583;50.094;8.748;2023-07-28T05:00:11;99611.16;;;17.31;100.00
72558;BME280;60583;50.094;8.748;2023-07-28T05:02:37;99596.56;;;17.16;100.00
72558;BME280;60583;50.094;8.748;2023-07-28T05:05:02;99638.72;;;17.43;100.00
72558;BME280;60583;50.094;8.748;2023-07-28T05:07:27;99635.78;;;17.44;100.00
72558;BME280;60583;50.094;8.748;2023-07-28T05:09:54;99640.94;;;17.51;100.00
72558;BME280;60583;50.094;8.748;2023-07-28T05:12:19;99644.44;;;17.51;100.00
72558;BME280;60583;50.094;8.748;2023-07-28T05:14:45;99643.38;;;17.52;100.00
72558;BME280;60583;50.094;8.748;2023-07-28T05:17:11;99644.44;;;17.51;100.00
72558;BME280;60583;50.094;8.748;2023-07-28T05:19:36;99651.47;;;17.52;100.00
72558;BME280;60583;50.094;8.748;2023-07-28T05:22:01;99655.53;;;17.55;100.00
72558;BME280;60583;50.094;8.748;2023-07-28T05:24:28;99649.34;;;17.54;100.00
72558;BME280;60583;50.094;8.748;2023-07-28T05:26:54;99645.47;;;17.45;100.00
72558;BME280;60583;50.094;8.748;2023-07-28T05:29:19;99655.53;;;17.55;100.00
72558;BME280;60583;50.094;8.748;2023-07-28T05:31:45;99656.88;;;17.52;100.00
72558;BME280;60583;50.094;8.748;2023-07-28T05:34:10;99665.25;;;17.56;100.00
72558;BME280;60583;50.094;8.748;2023-07-28T05:36:37;99649.53;;;17.48;100.00
72558;BME280;60583;50.094;8.748;2023-07-28T05:39:02;99657.47;;;17.59;100.00
72558;BME280;60583;50.094;8.748;2023-07-28T05:41:28;99656.34;;;17.55;100.00
72558;BME280;60583;50.094;8.748;2023-07-28T05:43:53;99641.19;;;17.49;100.00
72558;BME280;60583;50.094;8.748;2023-07-28T05:46:19;99657.69;;;17.53;100.00
72558;BME280;60583;50.094;8.748;2023-07-28T05:48:44;99635.78;;;17.44;100.00
72558;BME280;60583;50.094;8.748;2023-07-28T05:51:09;99665.56;;;17.64;100.00
72558;BME280;60583;50.094;8.748;2023-07-28T05:53:35;99671.75;;;17.65;100.00
72558;BME280;60583;50.094;8.748;2023-07-28T05:56:00;99668.28;;;17.64;100.00
72558;BME280;60583;50.094;8.748;2023-07-28T05:58:26;99662.03;;;17.59;100.00
72558;BME280;60583;50.094;8.748;2023-07-28T06:00:51;99662.88;;;17.64;100.00
72558;BME280;60583;50.094;8.748;2023-07-28T06:03:17;99658.53;;;17.63;100.00
72558;BME280;60583;50.094;8.748;2023-07-28T06:05:42;99663.44;;;17.71;100.00
72558;BME280;60583;50.094;8.748;2023-07-28T06:08:08;99669.69;;;17.77;100.00
72558;BME280;60583;50.094;8.748;2023-07-28T06:10:34;99661.84;;;17.75;100.00
72558;BME280;60583;50.094;8.748;2023-07-28T06:13:00;99669.94;;;17.80;100.00
72558;BME280;60583;50.094;8.748;2023-07-28T06:15:25;99672.72;;;17.96;100.00
72558;BME280;60583;50.094;8.748;2023-07-28T06:17:51;99658.13;;;17.87;100.00
72558;BME280;60583;50.094;8.748;2023-07-28T06:20:17;99664.06;;;17.94;100.00
72558;BME280;60583;50.094;8.748;2023-07-28T06:22:42;99675.44;;;18.01;100.00
72558;BME280;60583;50.094;8.748;2023-07-28T06:25:08;99663.28;;;17.98;100.00
72558;BME280;60583;50.094;8.748;2023-07-28T06:27:33;99664.09;;;18.04;100.00
72558;BME280;60583;50.094;8.748;2023-07-28T06:29:58;99678.97;;;18.11;100.00
72558;BME280;60583;50.094;8.748;2023-07-28T06:32:24;99677.91;;;18.12;100.00
72558;BME280;60583;50.094;8.748;2023-07-28T06:34:50;99688.97;;;18.16;100.00
72558;BME280;60583;50.094;8.748;2023-07-28T06:37:16;99686.81;;;18.23;100.00
72558;BME280;60583;50.094;8.748;2023-07-28T06:39:41;99676.03;;;18.23;100.00
72558;BME280;60583;50.094;8.748;2023-07-28T06:42:07;99675.50;;;18.26;100.00
72558;BME280;60583;50.094;8.748;2023-07-28T06:44:33;99680.69;;;18.37;100.00
72558;BME280;60583;50.094;8.748;2023-07-28T06:46:58;99671.22;;;18.35;100.00
72558;BME280;60583;50.094;8.748;2023-07-28T06:49:24;99691.78;;;18.51;100.00
72558;BME280;60583;50.094;8.748;2023-07-28T06:51:49;99686.41;;;18.51;100.00
72558;BME280;60583;50.094;8.748;2023-07-28T06:54:14;99677.44;;;18.45;100.00
72558;BME280;60583;50.094;8.748;2023-07-28T06:56:40;99677.19;;;18.42;100.00
72558;BME280;60583;50.094;8.748;2023-07-28T06:59:06;99702.06;;;18.59;100.00
72558;BME280;60583;50.094;8.748;2023-07-28T07:01:32;99698.31;;;18.55;100.00
72558;BME280;60583;50.094;8.748;2023-07-28T07:03:58;99688.03;;;18.52;100.00
72558;BME280;60583;50.094;8.748;2023-07-28T07:06:23;99704.78;;;18.59;100.00
72558;BME280;60583;50.094;8.748;2023-07-28T07:08:49;99715.06;;;18.72;100.00
72558;BME280;60583;50.094;8.748;2023-07-28T07:11:14;99718.59;;;18.73;100.00
72558;BME280;60583;50.094;8.748;2023-07-28T07:13:40;99715.88;;;18.73;100.00
72558;BME280;60583;50.094;8.748;2023-07-28T07:16:13;99718.59;;;18.78;100.00
72558;BME280;60583;50.094;8.748;2023-07-28T07:18:38;99713.44;;;18.71;100.00
72558;BME280;60583;50.094;8.748;2023-07-28T07:21:04;99716.69;;;18.83;100.00
72558;BME280;60583;50.094;8.748;2023-07-28T07:23:31;99709.69;;;18.82;100.00
72558;BME280;60583;50.094;8.748;2023-07-28T07:25:56;99718.84;;;18.86;100.00
72558;BME280;60583;50.094;8.748;2023-07-28T07:28:22;99702.94;;;18.85;100.00
72558;BME280;60583;50.094;8.748;2023-07-28T07:30:47;99697.25;;;18.81;100.00
72558;BME280;60583;50.094;8.748;2023-07-28T07:33:13;99718.88;;;19.01;100.00
72558;BME280;60583;50.094;8.748;2023-07-28T07:35:39;99714.00;;;18.98;100.00
72558;BME280;60583;50.094;8.748;2023-07-28T07:38:05;99731.84;;;18.94;100.00
72558;BME280;60583;50.094;8.748;2023-07-28T07:40:34;99719.38;;;18.83;100.00
72558;BME280;60583;50.094;8.748;2023-07-28T07:43:06;99708.56;;;18.78;100.00
72558;BME280;60583;50.094;8.748;2023-07-28T07:45:32;99736.19;;;19.00;100.00
72558;BME280;60583;50.094;8.748;2023-07-28T07:48:00;99738.88;;;19.00;100.00
72558;BME280;60583;50.094;8.748;2023-07-28T07:50:26;99725.63;;;18.99;100.00
72558;BME280;60583;50.094;8.748;2023-07-28T07:52:51;99721.56;;;19.06;100.00
72558;BME280;60583;50.094;8.748;2023-07-28T07:55:16;99740.50;;;19.22;100.00
72558;BME280;60583;50.094;8.748;2023-07-28T07:57:42;99704.00;;;19.04;100.00
72558;BME280;60583;50.094;8.748;2023-07-28T08:00:08;99732.91;;;19.13;100.00
72558;BME280;60583;50.094;8.748;2023-07-28T08:02:34;99730.78;;;19.16;100.00
72558;BME280;60583;50.094;8.748;2023-07-28T08:05:00;99741.84;;;19.29;100.00
72558;BME280;60583;50.094;8.748;2023-07-28T08:07:25;99735.91;;;19.22;100.00
72558;BME280;60583;50.094;8.748;2023-07-28T08:09:51;99748.88;;;19.35;100.00
72558;BME280;60583;50.094;8.748;2023-07-28T08:12:16;99754.28;;;19.35;100.00
72558;BME280;60583;50.094;8.748;2023-07-28T08:14:42;99754.03;;;19.42;100.00
72558;BME280;60583;50.094;8.748;2023-07-28T08:17:09;99752.97;;;19.43;100.00
72558;BME280;60583;50.094;8.748;2023-07-28T08:19:34;99757.25;;;19.64;100.00
72558;BME280;60583;50.094;8.748;2023-07-28T08:22:01;99753.97;;;19.77;100.00
72558;BME280;60583;50.094;8.748;2023-07-28T08:24:28;99757.78;;;19.86;100.00
72558;BME280;60583;50.094;8.748;2023-07-28T08:26:54;99738.25;;;19.84;100.00
72558;BME280;60583;50.094;8.748;2023-07-28T08:29:19;99747.94;;;20.05;100.00
72558;BME280;60583;50.094;8.748;2023-07-28T08:31:44;99753.63;;;20.24;100.00
72558;BME280;60583;50.094;8.748;2023-07-28T08:34:10;99746.25;;;20.29;100.00
72558;BME280;60583;50.094;8.748;2023-07-28T08:36:35;99742.97;;;20.38;100.00
72558;BME280;60583;50.094;8.748;2023-07-28T08:39:00;99745.69;;;20.38;99.45
72558;BME280;60583;50.094;8.748;2023-07-28T08:41:26;99754.53;;;20.53;97.78
72558;BME280;60583;50.094;8.748;2023-07-28T08:43:53;99740.59;;;20.75;95.63
72558;BME280;60583;50.094;8.748;2023-07-28T08:46:20;99750.03;;;20.82;94.08
72558;BME280;60583;50.094;8.748;2023-07-28T08:48:45;99750.53;;;20.84;94.11
72558;BME280;60583;50.094;8.748;2023-07-28T08:51:12;99741.84;;;20.87;95.11
72558;BME280;60583;50.094;8.748;2023-07-28T08:53:38;99750.78;;;20.93;93.76
72558;BME280;60583;50.094;8.748;2023-07-28T08:56:03;99751.78;;;21.02;93.63
72558;BME280;60583;50.094;8.748;2023-07-28T08:58:29;99734.25;;;20.89;90.52
72558;BME280;60583;50.094;8.748;2023-07-28T09:00:55;99765.97;;;20.94;90.68
72558;BME280;60583;50.094;8.748;2023-07-28T09:03:21;99762.91;;;21.06;89.75
72558;BME280;60583;50.094;8.748;2023-07-28T09:05:47;99762.06;;;21.05;88.29
72558;BME280;60583;50.094;8.748;2023-07-28T09:08:13;99758.78;;;21.13;89.24
72558;BME280;60583;50.094;8.748;2023-07-28T09:10:41;99770.94;;;21.21;89.24
72558;BME280;60583;50.094;8.748;2023-07-28T09:13:11;99759.22;;;21.25;88.02
72558;BME280;60583;50.094;8.748;2023-07-28T09:15:37;99752.75;;;21.50;86.73
72558;BME280;60583;50.094;8.748;2023-07-28T09:18:03;99761.63;;;21.60;87.72
72558;BME280;60583;50.094;8.748;2023-07-28T09:20:36;99767.63;;;21.57;86.76
72558;BME280;60583;50.094;8.748;2023-07-28T09:23:02;99770.28;;;21.62;86.84
72558;BME280;60583;50.094;8.748;2023-07-28T09:25:29;99769.09;;;21.45;86.26
72558;BME280;60583;50.094;8.748;2023-07-28T09:27:55;99773.34;;;21.56;86.73
72558;BME280;60583;50.094;8.748;2023-07-28T09:30:21;99772.06;;;21.48;85.99
72558;BME280;60583;50.094;8.748;2023-07-28T09:32:50;99779.06;;;21.54;85.91
72558;BME280;60583;50.094;8.748;2023-07-28T09:35:16;99773.94;;;21.48;85.39
72558;BME280;60583;50.094;8.748;2023-07-28T09:37:46;99750.31;;;21.20;85.91
72558;BME280;60583;50.094;8.748;2023-07-28T09:40:14;99765.75;;;21.24;87.87
72558;BME280;60583;50.094;8.748;2023-07-28T09:42:44;99776.06;;;21.22;86.53
72558;BME280;60583;50.094;8.748;2023-07-28T09:45:14;99759.56;;;21.19;87.06
72558;BME280;60583;50.094;8.748;2023-07-28T09:47:40;99776.53;;;21.34;87.40
72558;BME280;60583;50.094;8.748;2023-07-28T09:50:14;99775.97;;;21.32;87.71
72558;BME280;60583;50.094;8.748;2023-07-28T09:52:46;99778.13;;;21.35;88.13
72558;BME280;60583;50.094;8.748;2023-07-28T09:55:12;99748.91;;;21.27;86.54
72558;BME280;60583;50.094;8.748;2023-07-28T09:57:50;99753.56;;;21.50;86.03
72558;BME280;60583;50.094;8.748;2023-07-28T10:00:17;99768.34;;;21.68;86.04
72558;BME280;60583;50.094;8.748;2023-07-28T10:02:44;99755.28;;;21.70;84.96
72558;BME280;60583;50.094;8.748;2023-07-28T10:05:10;99758.38;;;21.92;84.65
72558;BME280;60583;50.094;8.748;2023-07-28T10:07:40;99769.03;;;22.31;82.66
72558;BME280;60583;50.094;8.748;2023-07-28T10:10:06;99772.47;;;22.60;81.95
72558;BME280;60583;50.094;8.748;2023-07-28T10:12:47;99761.78;;;22.88;79.70
72558;BME280;60583;50.094;8.748;2023-07-28T10:15:16;99761.22;;;23.23;75.82
72558;BME280;60583;50.094;8.748;2023-07-28T10:17:55;99764.09;;;23.13;76.21
72558;BME280;60583;50.094;8.748;2023-07-28T10:23:17;99771.34;;;22.61;76.35
72558;BME280;60583;50.094;8.748;2023-07-28T10:25:44;99768.94;;;22.60;77.08
72558;BME280;60583;50.094;8.748;2023-07-28T10:28:29;99767.50;;;22.67;77.57
72558;BME280;60583;50.094;8.748;2023-07-28T10:30:57;99773.75;;;23.05;75.74
72558;BME280;60583;50.094;8.748;2023-07-28T10:33:27;99773.28;;;23.17;75.05
72558;BME280;60583;50.094;8.748;2023-07-28T10:35:53;99776.66;;;23.09;74.01
72558;BME280;60583;50.094;8.748;2023-07-28T10:38:30;99784.81;;;23.09;74.22
72558;BME280;60583;50.094;8.748;2023-07-28T10:41:18;99782.19;;;23.22;73.42
72558;BME280;60583;50.094;8.748;2023-07-28T10:43:45;99783.19;;;23.26;72.96
72558;BME280;60583;50.094;8.748;2023-07-28T10:46:14;99778.84;;;23.44;72.69
72558;BME280;60583;50.094;8.748;2023-07-28T10:48:43;99773.41;;;23.44;71.71
72558;BME280;60583;50.094;8.748;2023-07-28T10:51:09;99779.22;;;23.56;72.57
72558;BME280;60583;50.094;8.748;2023-07-28T10:53:37;99791.50;;;23.54;72.82
72558;BME280;60583;50.094;8.748;2023-07-28T10:56:03;99773.84;;;23.51;71.31
72558;BME280;60583;50.094;8.748;2023-07-28T10:58:30;99766.66;;;23.23;73.09
72558;BME280;60583;50.094;8.748;2023-07-28T11:00:56;99787.09;;;23.39;72.30
72558;BME280;60583;50.094;8.748;2023-07-28T11:03:22;99769.91;;;23.25;73.17
72558;BME280;60583;50.094;8.748;2023-07-28T11:05:57;99785.25;;;23.34;72.94
72558;BME280;60583;50.094;8.748;2023-07-28T11:08:24;99786.31;;;23.20;73.17
72558;BME280;60583;50.094;8.748;2023-07-28T11:10:50;99785.94;;;23.08;73.71
72558;BME280;60583;50.094;8.748;2023-07-28T11:13:15;99783.31;;;23.03;73.58
72558;BME280;60583;50.094;8.748;2023-07-28T11:15:41;99783.09;;;22.80;75.33
72558;BME280;60583;50.094;8.748;2023-07-28T11:18:06;99780.63;;;22.60;76.33
72558;BME280;60583;50.094;8.748;2023-07-28T11:20:32;99792.56;;;22.64;76.73
72558;BME280;60583;50.094;8.748;2023-07-28T11:22:59;99794.28;;;22.55;77.41
72558;BME280;60583;50.094;8.748;2023-07-28T11:25:26;99791.16;;;22.43;78.75
72558;BME280;60583;50.094;8.748;2023-07-28T11:27:52;99787.59;;;22.24;80.42
72558;BME280;60583;50.094;8.748;2023-07-28T11:30:19;99779.78;;;21.94;81.88
72558;BME280;60583;50.094;8.748;2023-07-28T11:32:49;99796.69;;;21.86;83.09
72558;BME280;60583;50.094;8.748;2023-07-28T11:35:16;99794.19;;;21.94;83.54
72558;BME280;60583;50.094;8.748;2023-07-28T11:37:44;99790.69;;;21.89;84.85
72558;BME280;60583;50.094;8.748;2023-07-28T11:40:11;99790.72;;;21.84;85.06
72558;BME280;60583;50.094;8.748;2023-07-28T11:42:43;99790.91;;;21.63;86.08
72558;BME280;60583;50.094;8.748;2023-07-28T11:45:10;99796.81;;;21.71;86.84
72558;BME280;60583;50.094;8.748;2023-07-28T11:47:37;99800.81;;;21.78;86.55
72558;BME280;60583;50.094;8.748;2023-07-28T11:50:03;99803.22;;;21.85;86.76
72558;BME280;60583;50.094;8.748;2023-07-28T11:55:01;99803.41;;;21.93;85.85
72558;BME280;60583;50.094;8.748;2023-07-28T11:57:28;99799.97;;;22.11;85.27
72558;BME280;60583;50.094;8.748;2023-07-28T11:59:56;99791.50;;;22.13;84.78
72558;BME280;60583;50.094;8.748;2023-07-28T12:02:31;99799.47;;;22.28;85.59
72558;BME280;60583;50.094;8.748;2023-07-28T12:04:57;99780.13;;;22.11;85.26
72558;BME280;60583;50.094;8.748;2023-07-28T12:07:32;99793.66;;;21.92;85.83
72558;BME280;60583;50.094;8.748;2023-07-28T12:10:03;99797.88;;;22.03;85.89
72558;BME280;60583;50.094;8.748;2023-07-28T12:12:39;99794.88;;;22.05;85.39
72558;BME280;60583;50.094;8.748;2023-07-28T12:15:26;99791.41;;;22.23;85.53
72558;BME280;60583;50.094;8.748;2023-07-28T12:18:13;99799.19;;;22.53;83.51
72558;BME280;60583;50.094;8.748;2023-07-28T12:20:41;99789.69;;;22.32;83.78
72558;BME280;60583;50.094;8.748;2023-07-28T12:23:07;99783.91;;;22.15;84.62
72558;BME280;60583;50.094;8.748;2023-07-28T12:25:35;99785.16;;;21.99;87.11
72558;BME280;60583;50.094;8.748;2023-07-28T12:28:01;99785.28;;;21.89;89.31
72558;BME280;60583;50.094;8.748;2023-07-28T12:30:27;99800.78;;;21.54;92.62
72558;BME280;60583;50.094;8.748;2023-07-28T12:32:52;99797.50;;;21.52;94.44
72558;BME280;60583;50.094;8.748;2023-07-28T12:35:18;99792.03;;;21.57;92.86
72558;BME280;60583;50.094;8.748;2023-07-28T12:37:44;99790.91;;;21.63;93.26
72558;BME280;60583;50.094;8.748;2023-07-28T12:40:10;99779.84;;;21.84;92.36
72558;BME280;60583;50.094;8.748;2023-07-28T12:42:35;99777.25;;;22.26;90.58
72558;BME280;60583;50.094;8.748;2023-07-28T12:45:01;99793.66;;;22.58;88.67
72558;BME280;60583;50.094;8.748;2023-07-28T12:47:26;99775.78;;;22.34;86.97
72558;BME280;60583;50.094;8.748;2023-07-28T12:49:52;99781.22;;;22.34;86.61
72558;BME280;60583;50.094;8.748;2023-07-28T12:52:18;99818.50;;;22.75;84.66
72558;BME280;60583;50.094;8.748;2023-07-28T12:54:43;99807.81;;;22.60;85.21
72558;BME280;60583;50.094;8.748;2023-07-28T12:57:09;99799.38;;;22.38;84.19